Time;durP1;ratioP1;P1;durP2;ratioP2;P2;SDS_P1;SDS_P2;PMS_P1;PMS_P2;Temp;Humidity;BMP_temperature;BMP_pressure;BME280_temperature;BME280_humidity;BME280_pressure;Samples;Min_cycle;Max_cycle;Signal;HPM_P1;HPM_P2
2022/03/12 09:35:14;;;;;;;12.70;7.13;;;;;;;7.21;43.61;99372.38;5017998;28;20368;-82
2022/03/12 09:37:41;;;;;;;22.70;7.95;;;;;;;7.51;44.52;99378.31;5018530;28;20481;-82
2022/03/12 09:40:11;;;;;;;14.95;8.07;;;;;;;7.71;43.11;99360.88;5039505;27;20035;-83
2022/03/12 09:42:38;;;;;;;;;;;;;;;7.97;43.15;99390.56;5026614;28;20070;-82
2022/03/12 09:45:06;;;;;;;16.15;6.93;;;;;;;8.02;42.90;99373.00;5042717;28;19969;-82
2022/03/12 09:47:32;;;;;;;20.20;7.22;;;;;;;8.18;43.07;99369.50;5048294;28;20049;-82
2022/03/12 09:49:59;;;;;;;16.38;7.95;;;;;;;8.27;41.83;99387.47;5050298;27;20045;-83
2022/03/12 09:52:30;;;;;;;21.70;8.07;;;;;;;8.40;42.19;99368.91;5035012;28;20050;-80
2022/03/12 09:54:57;;;;;;;14.30;8.32;;;;;;;8.55;41.66;99371.84;5027682;28;20085;-82
2022/03/12 09:57:24;;;;;;;12.70;7.97;;;;;;;8.66;41.49;99368.78;5027372;28;20046;-82
2022/03/12 09:59:50;;;;;;;13.50;7.30;;;;;;;8.47;41.00;99347.41;5019236;28;20041;-82
2022/03/12 10:02:17;;;;;;;15.70;7.45;;;;;;;8.60;42.14;99341.53;5067460;27;20049;-82
2022/03/12 10:04:45;;;;;;;11.45;7.35;;;;;;;8.90;41.50;99360.84;5003273;28;20416;-84
2022/03/12 10:07:11;;;;;;;18.35;8.18;;;;;;;8.94;40.87;99349.50;5010575;28;20061;-82
2022/03/12 10:09:39;;;;;;;13.88;6.57;;;;;;;8.80;40.53;99325.78;5004727;28;20103;-82
2022/03/12 10:12:07;;;;;;;16.98;7.07;;;;;;;9.05;41.36;99340.16;5021010;28;20060;-82
2022/03/12 10:14:35;;;;;;;14.32;8.40;;;;;;;9.23;42.71;99321.00;5016104;27;20551;-82
2022/03/12 10:17:02;;;;;;;12.95;7.80;;;;;;;9.42;40.72;99343.34;5006250;28;20092;-82
2022/03/12 10:19:30;;;;;;;16.58;7.72;;;;;;;9.55;41.01;99343.63;5023870;28;20058;-82
2022/03/12 10:21:57;;;;;;;14.05;7.82;;;;;;;9.39;40.00;99330.94;5015695;27;20091;-81
2022/03/12 10:24:24;;;;;;;19.42;8.15;;;;;;;9.65;40.53;99343.44;5014859;28;20454;-82
2022/03/12 10:26:56;;;;;;;19.20;8.50;;;;;;;9.70;40.67;99341.06;5016052;28;20050;-81
2022/03/12 10:29:22;;;;;;;18.05;7.95;;;;;;;9.69;40.06;99321.19;5013428;28;20053;-82
2022/03/12 10:31:49;;;;;;;16.25;7.88;;;;;;;9.76;40.44;99318.63;5029297;28;20386;-81
2022/03/12 10:34:18;;;;;;;16.60;7.60;;;;;;;9.89;40.29;99315.34;5021686;28;20056;-82
2022/03/12 10:36:47;;;;;;;16.38;8.18;;;;;;;10.20;40.27;99317.22;5012357;27;20390;-82
2022/03/12 10:39:14;;;;;;;15.35;7.53;;;;;;;10.31;40.22;99326.84;5022010;28;20069;-82
2022/03/12 10:41:41;;;;;;;13.20;7.88;;;;;;;10.21;39.95;99305.34;5010131;28;20112;-84
2022/03/12 10:44:11;;;;;;;18.40;7.78;;;;;;;10.37;41.15;99310.72;5003122;28;20050;-82
2022/03/12 10:46:41;;;;;;;16.92;8.10;;;;;;;10.49;38.69;99315.72;4992280;28;20046;-82
2022/03/12 10:49:13;;;;;;;14.27;7.95;;;;;;;10.40;38.88;99295.88;5007642;28;20099;-82
2022/03/12 10:51:41;;;;;;;16.67;8.07;;;;;;;10.53;38.73;99308.91;5022447;28;20042;-82
2022/03/12 10:54:15;;;;;;;20.25;7.88;;;;;;;10.47;38.50;99299.59;5006393;28;20215;-82
2022/03/12 10:56:44;;;;;;;17.23;8.75;;;;;;;10.38;37.91;99295.25;4990515;28;20119;-82
2022/03/12 10:59:19;;;;;;;18.17;8.82;;;;;;;10.27;38.40;99297.31;4990598;28;20213;-83
2022/03/12 11:01:51;;;;;;;16.33;7.72;;;;;;;10.31;39.47;99289.63;4990524;28;20438;-82
2022/03/12 11:04:24;;;;;;;15.35;8.15;;;;;;;10.38;38.49;99287.91;4997982;28;20048;-82
2022/03/12 11:06:54;;;;;;;17.73;8.43;;;;;;;10.59;38.87;99310.88;4998836;28;20051;-82
2022/03/12 11:09:39;;;;;;;14.18;7.50;;;;;;;10.73;38.35;99312.78;4995959;28;20232;-84
2022/03/12 11:12:29;;;;;;;16.20;8.68;;;;;;;10.65;38.68;99291.13;4997990;28;20089;-83
2022/03/12 11:15:03;;;;;;;16.17;7.70;;;;;;;10.83;38.24;99303.56;4990154;28;20050;-83
2022/03/12 11:17:30;;;;;;;16.10;7.68;;;;;;;10.66;38.57;99281.09;5000498;28;20057;-83
2022/03/12 11:19:59;;;;;;;22.88;8.10;;;;;;;10.79;38.88;99301.22;5007855;28;20077;-83
2022/03/12 11:22:26;;;;;;;14.57;8.65;;;;;;;10.93;39.14;99304.13;4992346;28;20054;-83
2022/03/12 11:24:55;;;;;;;13.50;8.15;;;;;;;11.22;37.70;99286.19;5022596;28;20046;-83
2022/03/12 11:27:31;;;;;;;12.68;5.70;;;;;;;10.95;38.01;99285.78;5083330;28;20071;-83
2022/03/12 11:30:09;;;;;;;15.23;8.15;;;;;;;11.00;38.48;99269.72;5113442;28;20044;-83
2022/03/12 11:32:44;;;;;;;16.27;8.35;;;;;;;11.23;39.12;99294.16;5113337;27;20044;-83
2022/03/12 11:35:15;;;;;;;15.93;7.93;;;;;;;11.21;38.83;99279.88;5027568;28;20057;-83
2022/03/12 11:37:43;;;;;;;13.98;8.45;;;;;;;11.22;38.85;99284.31;5001279;28;20050;-82
2022/03/12 11:40:13;;;;;;;16.73;8.82;;;;;;;11.25;38.27;99274.94;4991013;28;20072;-82
2022/03/12 11:42:41;;;;;;;24.83;8.75;;;;;;;11.26;38.62;99285.63;5004238;28;20042;-84
2022/03/12 11:45:14;;;;;;;17.75;9.23;;;;;;;11.21;38.64;99252.69;4993852;28;20049;-82
2022/03/12 11:47:42;;;;;;;19.50;9.20;;;;;;;11.31;38.66;99260.56;5004136;28;20056;-82
2022/03/12 11:50:14;;;;;;;15.45;8.27;;;;;;;11.43;38.30;99234.56;4989869;28;20561;-82
2022/03/12 11:52:42;;;;;;;14.35;8.52;;;;;;;11.93;38.55;99253.03;4996105;28;20050;-82
2022/03/12 11:55:17;;;;;;;16.38;9.05;;;;;;;12.01;38.09;99253.78;4988653;28;20481;-82
2022/03/12 11:57:45;;;;;;;17.17;9.10;;;;;;;12.09;38.30;99236.44;4991431;28;20559;-82
2022/03/12 12:00:21;;;;;;;14.23;7.68;;;;;;;12.23;38.13;99252.94;5006964;28;20054;-83
2022/03/12 12:02:53;;;;;;;14.98;9.00;;;;;;;12.15;37.75;99230.22;4990154;28;20050;-83
2022/03/12 12:05:22;;;;;;;16.30;8.25;;;;;;;12.45;38.37;99243.75;4991509;28;20046;-82
2022/03/12 12:07:52;;;;;;;22.05;8.68;;;;;;;12.62;37.39;99244.31;4989446;28;20049;-83
2022/03/12 12:10:19;;;;;;;;;;;;;;;12.67;37.76;99228.19;4989605;28;20145;-82
2022/03/12 12:12:49;;;;;;;19.13;8.50;;;;;;;12.68;37.09;99201.78;4990411;28;19922;-83
2022/03/12 12:15:22;;;;;;;14.35;8.70;;;;;;;12.84;37.41;99222.44;4991214;28;20435;-83
2022/03/12 12:17:50;;;;;;;19.33;8.68;;;;;;;12.96;37.78;99220.84;4998955;28;20046;-83
2022/03/12 12:20:20;;;;;;;11.82;7.88;;;;;;;13.17;37.09;99222.69;5007066;28;20529;-82
2022/03/12 12:22:46;;;;;;;;;;;;;;;13.04;37.69;99217.16;5001144;28;20125;-83
2022/03/12 12:25:15;;;;;;;12.85;7.22;;;;;;;13.05;37.70;99216.06;4991753;28;19922;-82
2022/03/12 12:27:47;;;;;;;13.30;8.18;;;;;;;13.24;38.50;99211.81;4988471;28;20057;-82
2022/03/12 12:30:16;;;;;;;14.32;8.10;;;;;;;13.39;38.21;99208.97;5017052;28;20083;-83
2022/03/12 12:32:49;;;;;;;13.70;7.57;;;;;;;13.42;38.05;99200.38;4988984;28;20046;-82
2022/03/12 12:35:18;;;;;;;15.52;7.85;;;;;;;13.49;37.79;99204.00;4991897;28;20054;-82
2022/03/12 12:37:47;;;;;;;12.63;7.47;;;;;;;13.49;38.32;99189.47;4993155;28;20046;-83
2022/03/12 12:40:24;;;;;;;14.70;7.65;;;;;;;13.34;37.75;99189.59;4988783;28;20053;-83
2022/03/12 12:42:53;;;;;;;12.02;7.20;;;;;;;13.25;38.19;99167.09;4996773;28;20048;-83
2022/03/12 12:45:21;;;;;;;12.95;6.28;;;;;;;13.38;39.45;99175.38;4997323;28;20046;-82
2022/03/12 12:48:06;;;;;;;12.77;6.10;;;;;;;13.62;40.50;99164.94;4994353;28;20050;-82
2022/03/12 12:50:33;;;;;;;14.68;7.35;;;;;;;13.67;39.66;99167.06;4989100;28;20161;-82
2022/03/12 12:53:16;;;;;;;11.38;6.55;;;;;;;13.77;39.06;99151.97;4996182;28;20054;-82
2022/03/12 12:55:45;;;;;;;15.02;6.90;;;;;;;13.94;38.78;99165.25;4989181;28;20042;-82
2022/03/12 12:58:12;;;;;;;12.25;6.78;;;;;;;14.09;38.59;99165.94;4995005;28;20046;-82
2022/03/12 13:00:41;;;;;;;14.13;6.57;;;;;;;14.21;38.82;99165.28;5030179;28;20123;-83
2022/03/12 13:03:17;;;;;;;11.80;5.85;;;;;;;14.36;38.66;99173.31;5002214;28;20497;-82
2022/03/12 13:05:48;;;;;;;11.40;5.97;;;;;;;14.33;38.81;99150.81;4989161;28;20050;-82
2022/03/12 13:08:16;;;;;;;10.00;5.65;;;;;;;14.33;39.31;99161.75;4988246;28;20501;-82
2022/03/12 13:10:44;;;;;;;11.90;6.20;;;;;;;14.29;39.82;99167.84;5004391;28;20488;-82
2022/03/12 13:13:13;;;;;;;9.40;5.85;;;;;;;14.29;39.10;99152.28;4996262;28;20144;-82
2022/03/12 13:15:42;;;;;;;10.32;6.00;;;;;;;14.48;38.57;99147.00;4988186;28;20058;-82
2022/03/12 13:18:37;;;;;;;10.90;6.00;;;;;;;14.66;38.50;99147.25;5003408;28;20305;-82
2022/03/12 13:21:05;;;;;;;9.38;5.65;;;;;;;14.29;38.88;99119.47;4988420;28;20058;-82
2022/03/12 13:23:45;;;;;;;10.77;6.63;;;;;;;14.48;39.13;99141.53;4995440;28;20078;-82
2022/03/12 13:26:18;;;;;;;10.90;6.35;;;;;;;14.35;38.63;99120.50;4999736;28;20046;-82
2022/03/12 13:28:48;;;;;;;10.60;6.47;;;;;;;14.32;38.98;99119.03;5000320;28;20088;-82
2022/03/12 13:31:20;;;;;;;9.13;5.05;;;;;;;13.98;40.07;99107.25;4991612;28;20615;-82
2022/03/12 13:33:57;;;;;;;10.65;6.07;;;;;;;14.47;39.09;99127.03;4993291;28;20050;-82
2022/03/12 13:36:30;;;;;;;10.00;5.82;;;;;;;14.42;38.60;99107.69;4989216;28;20039;-83
2022/03/12 13:38:58;;;;;;;11.73;6.28;;;;;;;14.56;39.04;99107.66;4994710;28;20074;-83
2022/03/12 13:41:29;;;;;;;11.40;7.18;;;;;;;14.55;39.05;99109.56;4988529;28;20398;-83
2022/03/12 13:44:02;;;;;;;12.15;6.03;;;;;;;14.55;38.56;99106.81;4994393;28;20054;-83
2022/03/12 13:46:31;;;;;;;16.55;5.70;;;;;;;14.71;39.24;99107.44;4999522;28;20107;-83
2022/03/12 13:49:00;;;;;;;11.25;6.43;;;;;;;14.52;38.68;99119.00;4993565;28;20145;-83
2022/03/12 13:51:29;;;;;;;9.90;5.47;;;;;;;14.04;39.77;99118.38;4998386;28;20080;-83
2022/03/12 13:54:02;;;;;;;9.63;5.20;;;;;;;14.15;40.22;99098.63;4995226;28;20481;-83
2022/03/12 13:56:31;;;;;;;13.73;5.10;;;;;;;13.97;40.59;99111.03;4998232;28;20052;-83
2022/03/12 13:59:03;;;;;;;8.18;4.88;;;;;;;13.96;40.62;99086.63;5005933;28;20050;-83
2022/03/12 14:01:36;;;;;;;10.75;5.75;;;;;;;14.06;40.06;99108.06;5013092;28;20080;-83
2022/03/12 14:04:04;;;;;;;7.53;4.45;;;;;;;13.98;40.38;99096.31;5010634;28;20062;-83
2022/03/12 14:06:40;;;;;;;7.47;4.72;;;;;;;14.01;40.49;99107.88;4988034;28;20153;-83
2022/03/12 14:09:12;;;;;;;8.13;4.75;;;;;;;13.96;41.05;99090.19;4988007;28;20100;-83
2022/03/12 14:11:41;;;;;;;15.40;4.90;;;;;;;13.96;40.69;99089.38;4989750;28;20104;-83
2022/03/12 14:14:12;;;;;;;14.20;5.05;;;;;;;14.06;40.13;99108.06;5006392;28;20062;-83
2022/03/12 14:16:42;;;;;;;7.53;4.55;;;;;;;13.95;40.28;99104.91;4997302;28;20142;-83
2022/03/12 14:19:11;;;;;;;7.25;4.68;;;;;;;13.76;40.87;99094.78;4999839;28;20045;-83
2022/03/12 14:21:45;;;;;;;10.20;4.53;;;;;;;14.13;41.27;99089.78;4997986;28;20054;-83
2022/03/12 14:24:17;;;;;;;10.23;5.72;;;;;;;14.15;41.09;99110.41;4995659;28;20125;-82
2022/03/12 14:26:50;;;;;;;8.57;5.40;;;;;;;14.02;39.19;99095.91;4994943;28;20042;-83
2022/03/12 14:29:20;;;;;;;8.73;5.40;;;;;;;14.06;39.82;99105.34;5010122;28;20054;-83
2022/03/12 14:31:48;;;;;;;9.05;5.40;;;;;;;14.20;38.99;99087.09;5001580;28;20401;-83
2022/03/12 14:34:15;;;;;;;8.13;5.15;;;;;;;14.32;39.71;99105.38;5020150;28;20047;-84
2022/03/12 14:36:45;;;;;;;10.15;5.80;;;;;;;14.16;40.29;99106.59;5022958;28;20050;-83
2022/03/12 14:39:14;;;;;;;14.45;5.78;;;;;;;14.09;39.63;99085.78;4989817;28;20111;-83
2022/03/12 14:41:41;;;;;;;11.88;6.55;;;;;;;14.24;38.56;99091.06;4997933;28;20414;-83
2022/03/12 14:44:11;;;;;;;9.63;5.90;;;;;;;14.31;38.26;99091.91;4999484;28;20058;-83
2022/03/12 14:46:41;;;;;;;11.55;5.88;;;;;;;14.42;37.69;99080.34;4996229;28;20042;-83
2022/03/12 14:49:21;;;;;;;9.40;5.68;;;;;;;14.41;39.06;99084.13;4997555;28;20092;-83
2022/03/12 14:51:54;;;;;;;11.70;6.57;;;;;;;14.56;39.77;99088.50;4994338;28;20074;-83
2022/03/12 14:54:27;;;;;;;10.77;5.93;;;;;;;14.58;39.08;99083.69;4990806;28;20046;-83
2022/03/12 14:56:57;;;;;;;10.63;5.68;;;;;;;14.51;40.00;99081.78;5001503;28;20077;-83
2022/03/12 14:59:28;;;;;;;10.18;5.53;;;;;;;14.58;37.96;99079.03;4996649;28;20051;-83
2022/03/12 15:02:11;;;;;;;7.63;5.13;;;;;;;14.57;37.44;99085.53;4990777;28;20403;-83
2022/03/12 15:04:45;;;;;;;12.38;5.30;;;;;;;14.55;38.27;99082.19;4989927;28;20057;-83
2022/03/12 15:07:29;;;;;;;12.02;5.63;;;;;;;14.64;38.26;99066.44;5039150;28;20047;-83
2022/03/12 15:10:00;;;;;;;12.30;6.68;;;;;;;14.45;37.84;99076.31;5005907;28;20046;-82
2022/03/12 15:12:30;;;;;;;9.73;5.60;;;;;;;14.24;38.43;99086.44;4990479;28;20054;-83
2022/03/12 15:14:59;;;;;;;12.82;5.50;;;;;;;14.20;39.29;99087.91;4997954;28;20138;-83
2022/03/12 15:17:28;;;;;;;10.77;5.60;;;;;;;14.05;39.49;99057.22;4990437;28;20509;-83
2022/03/12 15:20:08;;;;;;;13.65;6.25;;;;;;;14.16;38.30;99079.28;4990108;28;20485;-83
2022/03/12 15:22:38;;;;;;;11.68;6.85;;;;;;;14.02;39.31;99084.97;4989744;28;20047;-83
2022/03/12 15:25:09;;;;;;;14.65;6.70;;;;;;;13.90;39.45;99071.09;5005031;28;20409;-82
2022/03/12 15:27:36;;;;;;;19.40;6.50;;;;;;;13.80;39.45;99069.59;4993409;28;20074;-83
2022/03/12 15:30:06;;;;;;;12.93;6.00;;;;;;;13.78;39.14;99074.41;4997851;28;20107;-82
2022/03/12 15:32:34;;;;;;;;;;;;;;;13.67;39.64;99077.78;4990368;28;20146;-82
2022/03/12 15:35:01;;;;;;;12.75;6.90;;;;;;;13.71;39.43;99068.09;4989414;28;19921;-82
2022/03/12 15:37:46;;;;;;;11.35;6.57;;;;;;;13.70;39.09;99076.50;4988633;28;20566;-82
2022/03/12 15:40:16;;;;;;;10.73;5.80;;;;;;;13.57;39.44;99072.69;4993047;28;20513;-82
2022/03/12 15:42:46;;;;;;;10.27;6.20;;;;;;;13.65;39.33;99071.66;4997275;28;20116;-83
2022/03/12 15:45:17;;;;;;;10.30;6.55;;;;;;;13.63;40.06;99084.69;4989394;28;20305;-83
2022/03/12 15:47:45;;;;;;;11.35;6.38;;;;;;;13.56;39.52;99076.47;4998372;28;20080;-83
2022/03/12 15:50:17;;;;;;;11.70;6.57;;;;;;;13.55;39.60;99068.47;4992277;28;20489;-82
2022/03/12 15:52:46;;;;;;;15.98;6.95;;;;;;;13.53;39.29;99051.47;4997396;28;20490;-83
2022/03/12 15:55:19;;;;;;;13.00;6.13;;;;;;;13.54;38.94;99044.97;4990256;28;20058;-83
2022/03/12 15:57:54;;;;;;;12.32;6.72;;;;;;;13.47;39.50;99055.88;4994703;28;20121;-82
2022/03/12 16:00:23;;;;;;;11.25;6.40;;;;;;;13.34;39.04;99042.16;5008621;28;20046;-82
2022/03/12 16:02:50;;;;;;;12.82;6.70;;;;;;;13.32;39.53;99047.81;5000952;28;20485;-82
2022/03/12 16:05:19;;;;;;;15.95;7.97;;;;;;;13.17;39.59;99047.13;4999850;28;20061;-83
2022/03/12 16:07:49;;;;;;;19.63;6.82;;;;;;;13.12;39.76;99042.28;5005143;28;20561;-83
2022/03/12 16:10:18;;;;;;;13.55;7.20;;;;;;;13.03;40.13;99038.91;5041381;28;20126;-83
2022/03/12 16:12:47;;;;;;;13.45;6.45;;;;;;;13.07;40.02;99055.72;5017875;28;20050;-83
2022/03/12 16:15:15;;;;;;;16.27;8.15;;;;;;;12.87;39.91;99040.09;5004047;28;20042;-82
2022/03/12 16:17:45;;;;;;;12.05;6.63;;;;;;;12.72;40.39;99029.34;5008431;28;20128;-82
2022/03/12 16:20:15;;;;;;;10.73;6.57;;;;;;;12.67;41.04;99037.25;4994801;28;20060;-83
2022/03/12 16:22:43;;;;;;;12.32;7.15;;;;;;;12.63;40.46;99036.00;5006385;28;20054;-83
2022/03/12 16:25:14;;;;;;;11.38;6.78;;;;;;;12.60;40.77;99046.44;4991357;28;20075;-82
2022/03/12 16:27:41;;;;;;;10.40;6.25;;;;;;;12.41;41.64;99037.13;5006733;28;20045;-83
2022/03/12 16:30:10;;;;;;;16.10;6.80;;;;;;;12.23;41.73;99033.00;5004801;28;20062;-82
2022/03/12 16:32:37;;;;;;;10.65;6.78;;;;;;;12.12;41.75;99028.09;4996247;28;20467;-82
2022/03/12 16:35:06;;;;;;;10.38;7.03;;;;;;;12.06;41.91;99051.56;4988551;28;20050;-82
2022/03/12 16:37:33;;;;;;;14.38;7.30;;;;;;;12.00;41.80;99052.34;4988658;28;20050;-82
2022/03/12 16:40:02;;;;;;;10.85;6.30;;;;;;;11.97;42.04;99058.19;4989783;28;20100;-82
2022/03/12 16:42:32;;;;;;;11.73;6.65;;;;;;;11.91;41.92;99048.00;4991373;28;20056;-82
2022/03/12 16:45:00;;;;;;;15.27;7.10;;;;;;;11.76;42.68;99059.84;4995514;28;20050;-82
2022/03/12 16:47:26;;;;;;;12.35;6.45;;;;;;;11.57;43.02;99036.00;4996860;28;20091;-82
2022/03/12 16:49:53;;;;;;;11.95;6.32;;;;;;;11.51;43.20;99054.78;4997045;28;20042;-82
2022/03/12 16:52:21;;;;;;;11.52;6.20;;;;;;;11.42;43.31;99050.50;4988869;28;20054;-82
2022/03/12 16:54:48;;;;;;;12.40;6.53;;;;;;;11.37;43.54;99061.13;4996837;28;20046;-82
2022/03/12 16:57:15;;;;;;;11.10;5.75;;;;;;;11.33;43.77;99048.94;4988885;28;20042;-82
2022/03/12 16:59:43;;;;;;;13.48;6.72;;;;;;;11.13;44.28;99046.84;4999631;28;20064;-82
2022/03/12 17:02:12;;;;;;;13.40;6.57;;;;;;;11.10;44.51;99052.66;5011375;28;20046;-82
2022/03/12 17:04:39;;;;;;;14.10;6.20;;;;;;;11.04;44.34;99047.97;5015062;28;20050;-82
2022/03/12 17:07:07;;;;;;;10.77;6.32;;;;;;;10.96;44.98;99059.81;4988767;28;20825;-82
2022/03/12 17:09:34;;;;;;;12.35;6.05;;;;;;;10.87;44.86;99046.50;4992612;28;20053;-82
2022/03/12 17:12:01;;;;;;;12.88;6.30;;;;;;;10.78;45.25;99054.78;5019183;28;20050;-82
2022/03/12 17:14:32;;;;;;;9.05;5.90;;;;;;;10.60;45.42;99043.44;4991308;28;20095;-82
2022/03/12 17:17:01;;;;;;;9.55;6.25;;;;;;;10.49;45.63;99030.31;4988634;28;20060;-82
2022/03/12 17:19:29;;;;;;;13.55;6.28;;;;;;;10.49;45.54;99043.91;4996516;28;20058;-81
2022/03/12 17:21:56;;;;;;;14.18;5.72;;;;;;;10.42;45.85;99054.69;5007844;28;20053;-82
2022/03/12 17:24:23;;;;;;;12.07;6.20;;;;;;;10.21;46.11;99039.09;4991706;28;20489;-82
2022/03/12 17:26:51;;;;;;;10.68;6.65;;;;;;;10.12;46.50;99051.91;4996385;28;20052;-82
2022/03/12 17:29:18;;;;;;;24.02;7.20;;;;;;;9.99;47.11;99051.69;5041214;28;20050;-82
2022/03/12 17:31:46;;;;;;;13.25;5.70;;;;;;;9.65;48.60;99042.13;4990567;28;20402;-82
2022/03/12 17:34:17;;;;;;;14.32;6.97;;;;;;;9.37;49.51;99034.53;4993413;28;20053;-82
2022/03/12 17:36:45;;;;;;;11.48;5.93;;;;;;;9.42;49.33;99059.25;5004454;28;20129;-82
2022/03/12 17:39:12;;;;;;;12.70;6.70;;;;;;;9.18;49.67;99061.13;4991205;28;20046;-82
2022/03/12 17:41:42;;;;;;;13.05;6.03;;;;;;;8.92;50.88;99044.31;4998838;28;20054;-82
2022/03/12 17:44:09;;;;;;;10.57;5.88;;;;;;;8.92;50.86;99069.53;5000324;28;20050;-82
2022/03/12 17:46:36;;;;;;;14.13;7.25;;;;;;;8.83;50.55;99057.88;4998790;28;20054;-82
2022/03/12 17:49:04;;;;;;;13.70;6.15;;;;;;;8.81;50.58;99064.53;4996530;28;20050;-82
2022/03/12 17:51:35;;;;;;;17.35;7.50;;;;;;;8.60;51.74;99055.13;5003148;28;20127;-82
2022/03/12 17:54:01;;;;;;;14.15;6.40;;;;;;;8.44;51.81;99063.28;4996296;28;20268;-82
2022/03/12 17:56:28;;;;;;;11.52;6.30;;;;;;;8.25;52.26;99053.66;4990863;28;20049;-82
2022/03/12 17:58:55;;;;;;;13.48;6.10;;;;;;;8.25;52.52;99070.75;5003653;28;20568;-82
2022/03/12 18:01:24;;;;;;;9.32;5.78;;;;;;;8.05;53.12;99062.16;5011005;28;20054;-82
2022/03/12 18:03:54;;;;;;;12.97;6.50;;;;;;;8.04;52.87;99074.00;5002640;28;20055;-82
2022/03/12 18:06:21;;;;;;;11.13;6.82;;;;;;;7.77;53.12;99062.50;5011265;28;20385;-82
2022/03/12 18:08:49;;;;;;;12.75;7.10;;;;;;;7.79;53.80;99084.81;5002915;28;20183;-82
2022/03/12 18:11:23;;;;;;;9.65;6.35;;;;;;;7.62;54.15;99064.22;5003292;28;20049;-82
2022/03/12 18:13:51;;;;;;;9.27;6.43;;;;;;;7.56;54.75;99076.53;5000554;28;20038;-82
2022/03/12 18:16:20;;;;;;;169.05;84.30;;;;;;;7.52;54.67;99067.06;5001890;28;20135;-81
2022/03/12 18:18:51;;;;;;;46.17;22.40;;;;;;;7.48;54.60;99056.75;4991898;28;20064;-83
2022/03/12 18:21:19;;;;;;;10.73;6.82;;;;;;;7.39;54.43;99064.88;4988971;28;20046;-82
2022/03/12 18:23:47;;;;;;;12.38;7.20;;;;;;;7.38;53.86;99060.47;4992859;28;20047;-82
2022/03/12 18:26:18;;;;;;;10.93;6.35;;;;;;;7.47;53.14;99060.44;4999103;28;20052;-82
2022/03/12 18:28:45;;;;;;;17.40;6.40;;;;;;;7.48;53.76;99068.41;5000165;28;20062;-82
2022/03/12 18:31:16;;;;;;;13.05;7.63;;;;;;;7.35;54.20;99070.78;4995701;28;20092;-83
2022/03/12 18:33:43;;;;;;;10.93;6.15;;;;;;;7.22;53.75;99060.44;5006905;28;20050;-83
2022/03/12 18:36:10;;;;;;;14.05;6.63;;;;;;;7.18;53.80;99070.75;5000486;28;20046;-83
2022/03/12 18:38:38;;;;;;;10.50;6.60;;;;;;;6.98;54.64;99055.81;4995836;28;20128;-82
2022/03/12 18:41:08;;;;;;;10.68;6.20;;;;;;;7.04;53.34;99069.50;4988688;28;20058;-82
2022/03/12 18:43:40;;;;;;;17.67;6.38;;;;;;;6.91;53.22;99055.63;4993799;28;20056;-81
2022/03/12 18:46:07;;;;;;;13.57;6.28;;;;;;;7.06;52.62;99074.75;4996467;28;20253;-82
2022/03/12 18:48:35;;;;;;;14.75;6.53;;;;;;;6.80;53.36;99051.34;4996323;28;20056;-82
2022/03/12 18:51:03;;;;;;;15.63;8.90;;;;;;;6.97;52.27;99056.81;4992108;28;20065;-82
2022/03/12 18:53:30;;;;;;;14.65;6.95;;;;;;;6.96;52.14;99050.56;5005418;28;20585;-82
2022/03/12 18:55:58;;;;;;;13.10;6.80;;;;;;;7.08;51.49;99051.13;4997105;28;20121;-81
2022/03/12 18:58:26;;;;;;;14.88;7.32;;;;;;;6.95;51.74;99048.88;4998332;28;20517;-82
2022/03/12 19:00:54;;;;;;;15.65;7.13;;;;;;;6.91;52.37;99067.28;5000731;28;20051;-83
2022/03/12 19:03:21;;;;;;;11.40;6.57;;;;;;;6.71;52.56;99050.50;5012754;28;20051;-82
2022/03/12 19:05:53;;;;;;;12.75;7.45;;;;;;;6.62;53.25;99075.75;5040137;28;20442;-82
2022/03/12 19:08:21;;;;;;;15.15;6.80;;;;;;;6.52;54.32;99075.06;5001408;28;20132;-83
2022/03/12 19:10:48;;;;;;;13.73;7.47;;;;;;;6.39;53.97;99070.09;4995574;28;20451;-83
2022/03/12 19:13:16;;;;;;;15.13;8.93;;;;;;;6.45;54.21;99077.53;4988601;28;20486;-83
2022/03/12 19:15:43;;;;;;;16.08;8.35;;;;;;;6.34;54.05;99075.97;4996475;28;20504;-83
2022/03/12 19:18:13;;;;;;;14.98;7.43;;;;;;;6.50;52.30;99066.25;4997389;28;20047;-83
2022/03/12 19:20:41;;;;;;;15.18;6.82;;;;;;;6.52;51.64;99064.25;4990926;28;20054;-82
2022/03/12 19:23:09;;;;;;;19.08;8.80;;;;;;;6.59;50.58;99059.03;4999447;28;20469;-83
2022/03/12 19:25:36;;;;;;;13.15;8.27;;;;;;;6.52;50.95;99064.25;4990333;28;20046;-83
2022/03/12 19:28:03;;;;;;;12.00;6.97;;;;;;;6.54;50.87;99057.66;4988947;28;20070;-83
2022/03/12 19:30:29;;;;;;;17.33;8.55;;;;;;;6.35;52.19;99052.50;4996376;28;20054;-83
2022/03/12 19:32:56;;;;;;;15.43;8.10;;;;;;;6.14;52.81;99064.56;5003403;28;20490;-84
2022/03/12 19:35:24;;;;;;;16.08;7.93;;;;;;;6.05;53.68;99072.75;4994007;28;20050;-83
2022/03/12 19:37:51;;;;;;;17.35;9.88;;;;;;;5.90;53.30;99065.19;5003813;28;20053;-83
2022/03/12 19:40:20;;;;;;;17.42;9.90;;;;;;;5.74;54.07;99067.78;5008458;28;20042;-83
2022/03/12 19:42:46;;;;;;;59.42;30.00;;;;;;;5.75;54.18;99082.94;4987903;28;20058;-82
2022/03/12 19:45:17;;;;;;;55.40;30.23;;;;;;;5.65;54.79;99073.06;4987634;28;20316;-83
2022/03/12 19:47:45;;;;;;;18.33;8.77;;;;;;;5.71;54.06;99078.88;4996861;28;20042;-83
2022/03/12 19:50:12;;;;;;;17.98;9.35;;;;;;;5.61;54.23;99077.09;5011160;28;20058;-82
2022/03/12 19:52:42;;;;;;;20.92;10.45;;;;;;;5.49;55.94;99075.63;4992400;28;20508;-83
2022/03/12 19:55:10;;;;;;;18.17;8.57;;;;;;;5.29;55.32;99077.63;5004530;28;20401;-83
2022/03/12 19:57:37;;;;;;;20.30;9.27;;;;;;;5.20;55.92;99067.78;5006350;28;20123;-83
2022/03/12 20:00:07;;;;;;;15.68;8.88;;;;;;;5.14;55.98;99080.00;4987772;28;20046;-83
2022/03/12 20:02:34;;;;;;;15.52;8.32;;;;;;;5.00;56.04;99077.81;4992574;28;20046;-82
2022/03/12 20:05:01;;;;;;;18.83;9.18;;;;;;;4.96;56.27;99083.50;4994432;28;20046;-83
2022/03/12 20:07:28;;;;;;;19.77;9.15;;;;;;;4.99;56.40;99081.53;4993654;28;20088;-82
2022/03/12 20:09:56;;;;;;;22.65;10.60;;;;;;;4.96;57.13;99083.50;4994397;27;20066;-82
2022/03/12 20:12:26;;;;;;;20.88;11.07;;;;;;;4.87;57.24;99065.56;5001234;28;20050;-82
2022/03/12 20:14:53;;;;;;;22.90;12.05;;;;;;;4.85;57.26;99074.78;4989696;28;20046;-82
2022/03/12 20:17:20;;;;;;;23.95;11.15;;;;;;;4.75;57.96;99082.94;4987340;28;20066;-83
2022/03/12 20:19:47;;;;;;;18.15;9.05;;;;;;;4.64;58.72;99077.72;4992913;28;20050;-83
2022/03/12 20:22:14;;;;;;;17.70;9.18;;;;;;;4.40;58.92;99052.22;5006462;28;20072;-83
2022/03/12 20:24:40;;;;;;;16.80;8.52;;;;;;;4.31;58.78;99066.56;4990342;28;20054;-82
2022/03/12 20:27:10;;;;;;;24.20;9.88;;;;;;;4.25;59.61;99071.50;5002202;28;20412;-83
2022/03/12 20:29:37;;;;;;;19.60;8.52;;;;;;;4.20;59.46;99062.19;4990506;28;20045;-83
2022/03/12 20:32:04;;;;;;;15.77;8.48;;;;;;;4.19;59.69;99068.56;4999634;28;20476;-83
2022/03/12 20:34:31;;;;;;;22.45;10.65;;;;;;;4.13;59.65;99067.31;5011612;28;20046;-83
2022/03/12 20:37:00;;;;;;;26.02;10.43;;;;;;;4.12;60.02;99073.69;4991038;28;20056;-82
2022/03/12 20:39:30;;;;;;;21.98;10.13;;;;;;;3.95;60.82;99061.00;4987373;28;20062;-82
2022/03/12 20:41:56;;;;;;;18.50;9.30;;;;;;;3.97;60.98;99067.06;4988091;28;20047;-82
2022/03/12 20:44:26;;;;;;;17.23;9.98;;;;;;;3.93;60.63;99065.66;4987041;28;20046;-82
2022/03/12 20:46:52;;;;;;;20.95;10.00;;;;;;;3.84;60.67;99057.47;4987168;28;20038;-83
2022/03/12 20:49:20;;;;;;;18.65;9.43;;;;;;;3.69;60.94;99051.69;4995836;28;20100;-82
2022/03/12 20:51:46;;;;;;;20.67;10.48;;;;;;;3.65;61.60;99052.13;4990978;28;20046;-83
2022/03/12 20:54:16;;;;;;;27.25;12.18;;;;;;;3.66;62.01;99054.66;4987362;28;20050;-82
2022/03/12 20:56:42;;;;;;;44.97;18.63;;;;;;;3.59;62.26;99055.38;4985970;28;20046;-82
2022/03/12 20:59:10;;;;;;;37.88;16.33;;;;;;;3.64;63.13;99058.47;4990738;28;20497;-82
2022/03/12 21:01:38;;;;;;;25.48;13.40;;;;;;;3.61;62.63;99056.09;4995282;28;20054;-82
2022/03/12 21:04:05;;;;;;;24.95;11.77;;;;;;;3.61;61.80;99046.16;4992588;28;20062;-82
2022/03/12 21:06:32;;;;;;;22.40;10.43;;;;;;;3.50;61.52;99052.53;5036001;28;20043;-83
2022/03/12 21:08:59;;;;;;;26.17;12.38;;;;;;;3.53;62.59;99060.31;5012050;28;20478;-83
2022/03/12 21:11:25;;;;;;;28.35;12.98;;;;;;;3.45;62.94;99054.00;4990425;28;20383;-83
2022/03/12 21:13:54;;;;;;;23.42;12.55;;;;;;;3.41;62.71;99045.34;4997881;28;20525;-83